Airfield :
LOGIN :

Register | Disclaimer

   EN    FR    IT 

 










Legend :    VFR   Marginal VFR   IFR   Intensive IFR   Very Intensive IFR
Visi :
Ceiling :
>= 8 km
>= 3000ft
5 to 8 km
1000 to 3000 ft
1500m to 5 km
500 to 1000 ft
800 to 1500m
200 to 500 ft
< 800m
< 200 ft
Symbols :   Thunderstorms  Fog  Heavy snow  Heavy precipitations  Wind > 20 kt
SIGMETs :     Misc.  Thunderstorms  Icing  Turbulence  Mountain Waves  Volcanic Ashes






- Airport Elevation : 1906 ft
- IATA code : INN


LOWI - Innsbruck

CURRENT METAR :
  • 071850Z VRB01KT CAVOK 13/11 Q1022 NOSIG

EXPIRED METARs :
  • 071820Z VRB01KT CAVOK 13/11 Q1022 NOSIG
  • 071750Z 30003KT 260V320 CAVOK 14/11 Q1022 NOSIG
  • 071720Z VRB02KT CAVOK 15/11 Q1021 NOSIG
  • 071650Z VRB01KT CAVOK 17/12 Q1021 NOSIG
  • 071620Z 10003KT 060V140 CAVOK 19/11 Q1021 NOSIG

TAF TAF LOWI
Valid from the 07 at 18:00 until the 08 at 18:00 UTC


071715Z 0718/0818 27005KT CAVOK TX18/0813Z TN08/0805Z
TEMPO 0811/0818 -SHRA
PROB30
TEMPO 0815/0818 SHRA SCT040TCU BKN050



MET'MAP, your aeronautical weather chart ! - Copyright ORBIFLY December 2007 - Disclaimer

ORBIFLY MET'MAP TEAM :

Programming & Development : Alexandra Zaïnal
Original concept : Baudouin d'Aumeries
Technical & hardware support : Manuel Goepfert
Assistance : Marc-Olivier Méhu




SOURCES & CREDITS :

   NOAA